createdAt,value
2019-03-28T00:01:34.492Z,27.07
2019-03-28T00:04:06.851Z,26.97
2019-03-28T00:06:39.656Z,27.00
2019-03-28T00:09:12.004Z,28.03
2019-03-28T00:11:43.972Z,27.40
2019-03-28T00:14:16.032Z,27.80
2019-03-28T00:16:48.278Z,31.10
2019-03-28T00:19:20.687Z,29.37
2019-03-28T00:21:52.642Z,28.43
2019-03-28T00:24:26.346Z,30.60
2019-03-28T00:26:58.406Z,28.17
2019-03-28T00:29:30.365Z,27.10
2019-03-28T00:32:02.223Z,29.17
2019-03-28T00:34:41.132Z,26.13
2019-03-28T00:37:18.332Z,28.37
2019-03-28T00:39:50.202Z,29.37
2019-03-28T00:42:22.162Z,25.23
2019-03-28T00:44:54.224Z,27.90
2019-03-28T00:47:26.192Z,29.70
2019-03-28T00:49:58.256Z,24.67
2019-03-28T00:52:30.212Z,25.27
2019-03-28T00:55:02.196Z,25.77
2019-03-28T00:57:34.132Z,26.43
2019-03-28T01:00:06.124Z,26.93
2019-03-28T01:02:41.343Z,30.73
2019-03-28T01:05:13.302Z,26.63
2019-03-28T01:07:45.572Z,28.60
2019-03-28T01:10:17.625Z,31.50
2019-03-28T01:12:55.656Z,29.93
2019-03-28T01:15:27.712Z,31.33
2019-03-28T01:17:59.872Z,30.90
2019-03-28T01:20:31.842Z,31.13
2019-03-28T01:23:03.813Z,29.00
2019-03-28T01:25:35.680Z,34.43
2019-03-28T01:28:13.663Z,32.00
2019-03-28T01:30:46.198Z,39.57
2019-03-28T01:33:18.271Z,32.63
2019-03-28T01:35:51.502Z,34.30
2019-03-28T01:38:24.252Z,33.97
2019-03-28T01:40:56.154Z,29.57
2019-03-28T01:43:28.114Z,28.90
2019-03-28T01:45:59.972Z,28.63
2019-03-28T01:48:37.972Z,26.83
2019-03-28T01:51:09.812Z,26.17
2019-03-28T01:53:47.681Z,28.47
2019-03-28T01:56:19.592Z,26.00
2019-03-28T01:58:51.372Z,28.20
2019-03-28T02:01:23.413Z,22.83
2019-03-28T02:03:55.581Z,32.43
2019-03-28T02:06:31.942Z,27.37
2019-03-28T02:09:06.226Z,25.87
2019-03-28T02:11:38.270Z,29.37
2019-03-28T02:14:10.332Z,32.37
2019-03-28T02:16:42.470Z,29.30
2019-03-28T02:19:14.522Z,24.73
2019-03-28T02:21:46.792Z,27.30
2019-03-28T02:24:19.991Z,26.23
2019-03-28T02:26:52.262Z,27.67
2019-03-28T02:29:27.570Z,28.17
2019-03-28T02:31:59.710Z,23.30
2019-03-28T02:34:31.570Z,23.97
2019-03-28T02:37:03.484Z,25.87
2019-03-28T02:39:36.065Z,26.87
2019-03-28T02:42:08.153Z,30.20
2019-03-28T02:44:40.092Z,27.67
2019-03-28T02:47:12.462Z,28.23
2019-03-28T02:49:45.221Z,27.37
2019-03-28T02:52:17.939Z,26.23
2019-03-28T02:54:49.886Z,30.30
2019-03-28T02:57:21.842Z,31.27
2019-03-28T02:59:54.650Z,34.17
2019-03-28T03:02:27.108Z,32.33
2019-03-28T03:04:58.895Z,27.70
2019-03-28T03:07:31.971Z,27.93
2019-03-28T03:10:05.763Z,29.50
2019-03-28T03:12:37.712Z,32.33
2019-03-28T03:15:11.670Z,30.83
2019-03-28T03:17:43.994Z,31.90
2019-03-28T03:20:15.961Z,36.27
2019-03-28T03:22:48.123Z,34.10
2019-03-28T03:25:23.262Z,30.60
2019-03-28T03:27:58.273Z,28.30
2019-03-28T03:30:34.771Z,30.80
2019-03-28T03:33:08.906Z,31.97
2019-03-28T03:35:40.532Z,36.93
2019-03-28T03:38:12.593Z,29.47
2019-03-28T03:40:44.972Z,34.10
2019-03-28T03:43:17.052Z,28.13
2019-03-28T03:45:54.213Z,29.27
2019-03-28T03:48:27.398Z,28.97
2019-03-28T03:50:59.372Z,32.80
2019-03-28T03:53:31.246Z,30.97
2019-03-28T03:56:04.121Z,30.80
2019-03-28T03:58:36.071Z,29.13
2019-03-28T04:01:08.044Z,27.70
2019-03-28T04:03:40.013Z,29.43
2019-03-28T04:06:11.934Z,27.17
2019-03-28T04:08:45.388Z,30.77
2019-03-28T04:11:18.071Z,28.87
2019-03-28T04:13:50.250Z,27.40
2019-03-28T04:16:22.297Z,27.40
2019-03-28T04:18:54.673Z,28.37
2019-03-28T04:21:27.900Z,29.77
2019-03-28T04:24:00.126Z,29.50
2019-03-28T04:26:32.201Z,28.00
2019-03-28T04:29:04.785Z,26.53
2019-03-28T04:31:37.244Z,29.30
2019-03-28T04:34:09.663Z,26.97
2019-03-28T04:36:42.305Z,28.40
2019-03-28T04:39:14.197Z,27.67
2019-03-28T04:41:46.736Z,28.47
2019-03-28T04:44:18.703Z,30.53
2019-03-28T04:46:59.682Z,28.93
2019-03-28T04:52:04.003Z,25.60
2019-03-28T04:54:36.074Z,28.50
2019-03-28T04:57:08.068Z,27.00
2019-03-28T04:59:40.002Z,25.90
2019-03-28T05:02:11.845Z,28.43
2019-03-28T05:04:43.813Z,25.80
2019-03-28T05:07:16.362Z,25.37
2019-03-28T05:09:52.762Z,26.63
2019-03-28T05:12:25.436Z,23.57
2019-03-28T05:14:57.715Z,24.57
2019-03-28T05:17:35.884Z,21.87
2019-03-28T05:20:13.235Z,26.83
2019-03-28T05:22:45.373Z,24.10
2019-03-28T05:25:17.382Z,23.20
2019-03-28T05:27:49.368Z,22.00
2019-03-28T05:30:21.802Z,20.10
2019-03-28T05:32:53.723Z,20.93
2019-03-28T05:35:26.370Z,22.37
2019-03-28T05:37:58.794Z,21.63
2019-03-28T05:40:30.983Z,19.60
2019-03-28T05:43:03.362Z,22.20
2019-03-28T05:45:35.245Z,22.37
2019-03-28T05:48:07.124Z,21.37
2019-03-28T05:50:39.093Z,20.93
2019-03-28T05:53:11.001Z,19.40
2019-03-28T05:55:43.084Z,20.63
2019-03-28T05:58:14.943Z,20.50
2019-03-28T06:00:46.873Z,20.43
2019-03-28T06:03:18.843Z,24.83
2019-03-28T06:05:50.732Z,21.33
2019-03-28T06:08:28.662Z,20.90
2019-03-28T06:11:07.492Z,20.43
2019-03-28T06:13:39.874Z,23.30
2019-03-28T06:16:11.831Z,22.27
2019-03-28T06:18:43.813Z,20.70
2019-03-28T06:21:15.792Z,23.57
2019-03-28T06:23:48.032Z,26.40
2019-03-28T06:26:20.187Z,25.88
2019-03-28T06:28:52.253Z,22.97
2019-03-28T06:31:24.738Z,22.03
2019-03-28T06:33:56.632Z,19.40
2019-03-28T06:36:28.653Z,20.73
2019-03-28T06:39:00.552Z,19.77
2019-03-28T06:41:32.671Z,20.13
2019-03-28T06:44:05.390Z,20.53
2019-03-28T06:46:37.382Z,19.30
2019-03-28T06:49:09.282Z,19.53
2019-03-28T06:51:41.553Z,21.37
2019-03-28T06:54:13.364Z,21.17
2019-03-28T06:56:45.382Z,18.17
2019-03-28T06:59:17.454Z,20.70
2019-03-28T07:01:49.544Z,21.93
2019-03-28T07:04:21.365Z,15.87
2019-03-28T07:06:57.046Z,16.40
2019-03-28T07:09:28.972Z,20.33
2019-03-28T07:12:04.353Z,20.10
2019-03-28T07:14:36.820Z,20.33
2019-03-28T07:17:09.272Z,15.37
2019-03-28T07:19:41.122Z,23.10
2019-03-28T07:22:13.071Z,16.23
2019-03-28T07:24:44.955Z,15.27
2019-03-28T07:27:17.388Z,13.47
2019-03-28T07:29:51.142Z,15.20
2019-03-28T07:32:23.391Z,14.40
2019-03-28T07:34:55.252Z,16.27
2019-03-28T07:37:28.171Z,20.67
2019-03-28T07:40:00.422Z,18.97
2019-03-28T07:42:32.583Z,13.83
2019-03-28T07:45:06.082Z,12.67
2019-03-28T07:47:38.155Z,11.90
2019-03-28T07:50:16.365Z,12.07
2019-03-28T07:52:48.322Z,12.20
2019-03-28T07:55:20.592Z,11.83
2019-03-28T07:57:52.557Z,15.03
2019-03-28T08:00:30.347Z,8.50
2019-03-28T08:03:02.402Z,11.73
2019-03-28T08:05:44.314Z,11.27
2019-03-28T08:08:16.472Z,12.40
2019-03-28T08:10:57.249Z,10.27
2019-03-28T08:13:33.442Z,8.80
2019-03-28T08:16:06.095Z,10.33
2019-03-28T08:18:38.369Z,8.83
2019-03-28T08:21:10.523Z,6.77
2019-03-28T08:23:43.062Z,8.83
2019-03-28T08:26:15.071Z,9.57
2019-03-28T08:28:47.029Z,7.13
2019-03-28T08:31:19.093Z,8.13
2019-03-28T08:33:52.386Z,7.57
2019-03-28T08:36:24.442Z,10.90
2019-03-28T08:38:56.501Z,7.60
2019-03-28T08:41:37.595Z,9.67
2019-03-28T08:44:10.674Z,8.97
2019-03-28T08:46:43.462Z,10.30
2019-03-28T08:49:15.522Z,9.50
2019-03-28T08:51:47.482Z,9.03
2019-03-28T08:54:19.443Z,8.20
2019-03-28T08:56:57.681Z,10.43
2019-03-28T08:59:29.826Z,12.37
2019-03-28T09:02:04.873Z,10.23
2019-03-28T09:04:35.902Z,10.87
2019-03-28T09:07:07.964Z,11.17
2019-03-28T09:09:43.930Z,16.73
2019-03-28T09:12:24.691Z,9.47
2019-03-28T09:17:41.252Z,9.47
2019-03-28T09:20:13.381Z,9.60
2019-03-28T09:22:51.490Z,8.57
2019-03-28T09:25:23.512Z,10.87
2019-03-28T09:27:55.402Z,6.07
2019-03-28T09:30:48.130Z,8.57
2019-03-28T09:33:12.752Z,8.30
2019-03-28T09:35:44.858Z,8.17
2019-03-28T09:38:16.687Z,7.47
2019-03-28T09:40:48.832Z,8.27
2019-03-28T09:43:20.804Z,8.17
2019-03-28T09:45:52.806Z,10.10
2019-03-28T09:48:26.164Z,8.80
2019-03-28T09:50:58.162Z,13.17
2019-03-28T09:53:30.182Z,7.40
2019-03-28T09:56:03.387Z,8.03
2019-03-28T09:58:39.753Z,7.83
2019-03-28T10:01:11.713Z,10.47
2019-03-28T10:03:43.663Z,7.07
2019-03-28T10:06:15.853Z,7.17
2019-03-28T10:08:47.692Z,7.90
2019-03-28T10:11:19.822Z,10.60
2019-03-28T10:13:51.692Z,8.93
2019-03-28T10:16:23.633Z,6.73
2019-03-28T10:18:56.163Z,8.00
2019-03-28T10:21:28.322Z,6.93
2019-03-28T10:24:00.282Z,8.70
2019-03-28T10:26:32.469Z,8.17
2019-03-28T10:29:04.625Z,7.70
2019-03-28T10:31:36.583Z,9.17
2019-03-28T10:34:08.652Z,11.10
2019-03-28T10:36:40.513Z,10.87
2019-03-28T10:39:12.528Z,8.87
2019-03-28T10:41:44.532Z,10.57
2019-03-28T10:44:22.246Z,10.00
2019-03-28T10:46:54.305Z,11.50
2019-03-28T10:49:26.885Z,7.23
2019-03-28T10:51:58.742Z,9.03
2019-03-28T10:54:30.803Z,7.13
2019-03-28T10:57:12.893Z,7.70
2019-03-28T10:59:36.462Z,8.07
2019-03-28T11:02:08.531Z,6.17
2019-03-28T11:04:40.603Z,6.33
2019-03-28T11:07:13.082Z,10.60
2019-03-28T11:09:45.342Z,6.83
2019-03-28T11:12:17.402Z,6.47
2019-03-28T11:14:49.222Z,7.90
2019-03-28T11:17:21.900Z,6.10
2019-03-28T11:19:56.029Z,5.87
2019-03-28T11:22:28.030Z,6.87
2019-03-28T11:24:59.983Z,5.43
2019-03-28T11:27:31.942Z,4.40
2019-03-28T11:30:07.692Z,4.50
2019-03-28T11:32:39.776Z,4.97
2019-03-28T11:35:11.640Z,4.30
2019-03-28T11:37:43.722Z,4.27
2019-03-28T11:40:15.545Z,5.63
2019-03-28T11:42:47.382Z,4.87
2019-03-28T11:45:19.271Z,5.30
2019-03-28T11:47:51.445Z,5.70
2019-03-28T11:50:23.702Z,3.83
2019-03-28T11:52:55.879Z,4.63
2019-03-28T11:55:27.735Z,3.57
2019-03-28T11:58:00.002Z,4.40
2019-03-28T12:00:31.883Z,5.30
2019-03-28T12:03:04.046Z,4.40
2019-03-28T12:05:42.040Z,4.07
2019-03-28T12:08:14.010Z,4.93
2019-03-28T12:10:45.963Z,4.30
2019-03-28T12:13:18.052Z,5.03
2019-03-28T12:15:56.332Z,3.40
2019-03-28T12:18:31.711Z,3.27
2019-03-28T12:21:03.815Z,4.80
2019-03-28T12:23:36.017Z,4.33
2019-03-28T12:26:08.994Z,3.33
2019-03-28T12:28:41.487Z,2.90
2019-03-28T12:31:13.754Z,4.73
2019-03-28T12:33:46.037Z,3.83
2019-03-28T12:36:18.744Z,4.10
2019-03-28T12:38:50.862Z,3.27
2019-03-28T12:41:22.822Z,4.07
2019-03-28T12:43:55.393Z,3.40
2019-03-28T12:46:27.265Z,3.13
2019-03-28T12:48:59.422Z,5.57
2019-03-28T12:51:31.811Z,3.47
2019-03-28T12:54:04.272Z,3.13
2019-03-28T12:56:36.432Z,5.93
2019-03-28T12:59:08.613Z,3.73
2019-03-28T13:01:40.572Z,3.40
2019-03-28T13:04:12.642Z,3.30
2019-03-28T13:06:44.474Z,6.30
2019-03-28T13:09:16.392Z,3.03
2019-03-28T13:14:56.222Z,5.60
2019-03-28T13:17:28.182Z,2.40
2019-03-28T13:20:06.455Z,2.67
2019-03-28T13:22:38.983Z,1.97
2019-03-28T13:25:10.933Z,2.33
2019-03-28T13:27:42.791Z,2.63
2019-03-28T13:30:14.853Z,2.80
2019-03-28T13:32:46.829Z,3.50
2019-03-28T13:35:18.883Z,4.50
2019-03-28T13:37:50.742Z,3.00
2019-03-28T13:40:22.827Z,3.53
2019-03-28T13:42:54.772Z,3.23
2019-03-28T13:45:26.733Z,2.63
2019-03-28T13:47:58.602Z,1.70
2019-03-28T13:50:30.552Z,2.23
2019-03-28T13:53:03.028Z,1.60
2019-03-28T13:55:35.312Z,2.23
2019-03-28T13:58:07.482Z,3.20
2019-03-28T14:00:39.352Z,6.87
2019-03-28T14:03:11.392Z,4.10
2019-03-28T14:08:21.252Z,1.73
2019-03-28T14:10:56.302Z,2.60
2019-03-28T14:13:28.365Z,3.63
2019-03-28T14:16:06.152Z,3.70
2019-03-28T14:18:38.342Z,2.10
2019-03-28T14:21:13.872Z,2.40
2019-03-28T14:23:46.342Z,3.20
2019-03-28T14:26:18.522Z,2.80
2019-03-28T14:28:56.631Z,2.40
2019-03-28T14:31:28.692Z,5.00
2019-03-28T14:34:00.656Z,4.43
2019-03-28T14:36:32.616Z,5.33
2019-03-28T14:39:06.152Z,3.50
2019-03-28T14:41:37.972Z,2.53
2019-03-28T14:44:12.190Z,3.57
2019-03-28T14:46:44.266Z,13.17
2019-03-28T14:49:16.321Z,3.90
2019-03-28T14:51:48.332Z,2.37
2019-03-28T14:54:21.184Z,2.50
2019-03-28T14:56:54.454Z,3.37
2019-03-28T14:59:35.446Z,2.23
2019-03-28T15:02:07.498Z,3.33
2019-03-28T15:04:45.410Z,2.00
2019-03-28T15:07:17.466Z,5.90
2019-03-28T15:09:51.472Z,6.23
2019-03-28T15:12:23.433Z,3.37
2019-03-28T15:14:58.193Z,4.10
2019-03-28T15:17:30.122Z,5.40
2019-03-28T15:20:02.292Z,4.97
2019-03-28T15:22:38.141Z,6.00
2019-03-28T15:25:10.832Z,6.37
2019-03-28T15:27:42.792Z,4.47
2019-03-28T15:30:14.741Z,6.73
2019-03-28T15:32:46.812Z,6.03
2019-03-28T15:35:18.998Z,5.80
2019-03-28T15:37:50.952Z,9.30
2019-03-28T15:40:22.907Z,4.97
2019-03-28T15:42:54.765Z,4.33
2019-03-28T15:45:26.603Z,6.53
2019-03-28T15:47:58.582Z,3.30
2019-03-28T15:50:30.952Z,13.80
2019-03-28T15:53:02.814Z,23.70
2019-03-28T15:55:35.209Z,18.20
2019-03-28T15:58:07.052Z,7.33
2019-03-28T16:00:39.230Z,6.50
2019-03-28T16:03:11.182Z,4.60
2019-03-28T16:05:57.197Z,8.03
2019-03-28T16:08:17.162Z,9.73
2019-03-28T16:10:49.531Z,7.87
2019-03-28T16:13:22.844Z,7.03
2019-03-28T16:15:57.075Z,10.17
2019-03-28T16:18:29.735Z,9.27
2019-03-28T16:21:01.757Z,12.73
2019-03-28T16:23:37.171Z,11.17
2019-03-28T16:26:10.707Z,8.43
2019-03-28T16:28:42.592Z,11.17
2019-03-28T16:31:14.651Z,7.53
2019-03-28T16:33:46.812Z,4.73
2019-03-28T16:36:18.692Z,10.60
2019-03-28T16:38:50.844Z,10.23
2019-03-28T16:41:29.362Z,10.63
2019-03-28T16:44:01.340Z,9.67
2019-03-28T16:46:33.702Z,6.90
2019-03-28T16:49:05.752Z,7.80
2019-03-28T16:51:43.345Z,10.30
2019-03-28T16:54:14.427Z,14.27
2019-03-28T16:56:53.729Z,14.83
2019-03-28T16:59:25.905Z,11.17
2019-03-28T17:01:58.062Z,10.37
2019-03-28T17:04:29.942Z,11.20
2019-03-28T17:07:05.991Z,10.40
2019-03-28T17:09:39.117Z,9.63
2019-03-28T17:12:11.152Z,8.23
2019-03-28T17:14:43.552Z,16.53
2019-03-28T17:17:16.290Z,10.18
2019-03-28T17:19:48.426Z,9.03
2019-03-28T17:22:21.096Z,19.77
2019-03-28T17:24:54.267Z,9.70
2019-03-28T17:27:26.677Z,17.23
2019-03-28T17:29:58.673Z,12.63
2019-03-28T17:32:30.733Z,14.20
2019-03-28T17:35:03.791Z,12.10
2019-03-28T17:37:36.095Z,14.67
2019-03-28T17:40:08.532Z,35.30
2019-03-28T17:42:40.543Z,28.97
2019-03-28T17:45:12.522Z,22.33
2019-03-28T17:47:44.660Z,22.10
2019-03-28T17:50:17.560Z,16.83
2019-03-28T17:52:49.783Z,20.13
2019-03-28T17:55:21.740Z,22.60
2019-03-28T17:57:54.103Z,18.53
2019-03-28T18:08:26.462Z,17.12
2019-03-28T18:11:00.352Z,17.60
2019-03-28T18:13:32.344Z,16.93
2019-03-28T18:16:04.137Z,18.17
2019-03-28T18:18:37.381Z,16.67
2019-03-28T18:21:09.262Z,18.30
2019-03-28T18:23:41.263Z,16.90
2019-03-28T18:26:19.533Z,17.83
2019-03-28T18:28:51.982Z,19.53
2019-03-28T18:31:23.859Z,18.10
2019-03-28T18:33:58.944Z,16.43
2019-03-28T18:36:34.752Z,14.70
2019-03-28T18:39:06.921Z,16.33
2019-03-28T18:41:39.060Z,17.43
2019-03-28T18:44:11.362Z,16.17
2019-03-28T18:46:43.512Z,17.00
2019-03-28T18:49:15.432Z,19.93
2019-03-28T18:51:47.312Z,16.53
2019-03-28T18:54:20.395Z,17.87
2019-03-28T18:56:52.292Z,17.57
2019-03-28T18:59:25.186Z,18.87
2019-03-28T19:01:57.006Z,18.63
2019-03-28T19:04:28.983Z,20.63
2019-03-28T19:07:00.793Z,22.47
2019-03-28T19:09:32.823Z,22.03
2019-03-28T19:12:04.680Z,21.70
2019-03-28T19:14:36.672Z,31.87
2019-03-28T19:45:43.703Z,31.90
2019-03-28T19:48:15.845Z,33.03
2019-03-28T19:50:47.832Z,31.63
2019-03-28T19:53:19.874Z,34.13
2019-03-28T19:55:52.222Z,42.53
2019-03-28T19:58:24.201Z,31.97
2019-03-28T20:00:59.535Z,40.57
2019-03-28T20:03:37.742Z,47.77
2019-03-28T20:06:22.153Z,36.33
2019-03-28T20:08:48.653Z,43.83
2019-03-28T20:11:21.109Z,45.27
2019-03-28T20:13:56.142Z,35.90
2019-03-28T20:16:29.381Z,35.70
2019-03-28T20:19:02.529Z,44.17
2019-03-28T20:21:35.093Z,45.07
2019-03-28T20:24:07.161Z,38.87
2019-03-28T20:26:39.541Z,42.03
2019-03-28T20:29:11.599Z,41.00
2019-03-28T20:31:43.861Z,36.10
2019-03-28T20:34:25.254Z,42.53
2019-03-28T20:36:57.625Z,68.57
2019-03-28T20:39:35.938Z,81.50
2019-03-28T20:42:08.773Z,52.97
2019-03-28T20:44:41.302Z,48.10
2019-03-28T20:47:16.781Z,38.47
2019-03-28T20:49:55.062Z,42.83
2019-03-28T20:52:27.216Z,39.63
2019-03-28T20:54:59.727Z,43.00
2019-03-28T20:57:32.074Z,45.47
2019-03-28T21:00:08.777Z,44.43
2019-03-28T21:02:41.231Z,47.60
2019-03-28T21:05:14.479Z,44.40
2019-03-28T21:07:46.771Z,41.83
2019-03-28T21:12:04.099Z,40.52
2019-03-28T21:14:36.272Z,40.63
2019-03-28T21:17:09.474Z,39.50
2019-03-28T21:19:42.254Z,41.87
2019-03-28T21:22:15.032Z,39.17
2019-03-28T21:24:47.211Z,37.37
2019-03-28T21:27:28.372Z,37.80
2019-03-28T21:30:00.443Z,37.60
2019-03-28T21:32:32.331Z,36.43
2019-03-28T21:35:07.553Z,42.47
2019-03-28T21:37:41.763Z,41.20
2019-03-28T21:40:14.024Z,36.90
2019-03-28T21:42:46.132Z,43.37
2019-03-28T21:45:18.252Z,41.33
2019-03-28T21:47:56.261Z,45.10
2019-03-28T21:50:28.252Z,41.30
2019-03-28T21:53:00.504Z,42.17
2019-03-28T21:55:32.552Z,39.60
2019-03-28T21:58:05.029Z,36.73
2019-03-28T22:00:37.381Z,40.70
2019-03-28T22:03:09.490Z,37.43
2019-03-28T22:05:41.390Z,39.10
2019-03-28T22:08:13.522Z,40.33
2019-03-28T22:10:45.510Z,39.67
2019-03-28T22:13:17.442Z,38.20
2019-03-28T22:15:49.800Z,38.13
2019-03-28T22:18:21.652Z,33.97
2019-03-28T22:20:53.822Z,34.40
2019-03-28T22:23:26.116Z,33.93
2019-03-28T22:25:58.205Z,32.83
2019-03-28T22:28:30.321Z,34.07
2019-03-28T22:31:02.382Z,30.87
2019-03-28T22:33:34.462Z,30.67
2019-03-28T22:36:06.642Z,34.07
2019-03-28T22:38:44.440Z,28.73
2019-03-28T22:41:16.750Z,31.27
2019-03-28T22:43:55.002Z,31.57
2019-03-28T22:46:26.981Z,33.23
2019-03-28T22:49:05.963Z,33.40
2019-03-28T22:51:38.181Z,35.73
2019-03-28T22:54:10.477Z,28.50
2019-03-28T22:56:42.501Z,31.93
2019-03-28T22:59:14.452Z,38.40
2019-03-28T23:01:46.822Z,33.23
2019-03-28T23:04:18.901Z,33.27
2019-03-28T23:06:50.861Z,34.23
2019-03-28T23:09:22.714Z,34.10
2019-03-28T23:11:55.430Z,35.20
2019-03-28T23:14:28.923Z,39.23
2019-03-28T23:17:01.061Z,33.93
2019-03-28T23:19:33.029Z,33.00
2019-03-28T23:22:05.082Z,32.50
2019-03-28T23:24:39.125Z,36.50
2019-03-28T23:27:12.805Z,33.23
2019-03-28T23:29:44.728Z,33.03
2019-03-28T23:32:16.732Z,34.27
2019-03-28T23:34:48.877Z,34.80
2019-03-28T23:37:24.964Z,30.00
2019-03-28T23:39:55.179Z,35.23
2019-03-28T23:42:27.132Z,37.40
2019-03-28T23:45:00.434Z,35.93
2019-03-28T23:47:33.002Z,34.63
2019-03-28T23:50:08.451Z,33.03
2019-03-28T23:52:40.661Z,36.40
2019-03-28T23:55:13.192Z,40.10
2019-03-28T23:57:45.065Z,37.07
